Aviation Digital Data Service (ADDS)

Output produced by METARs form (1352 UTC 01 August 2014)
found at http://www.aviationweather.gov/adds/metars/
 
SEGU 011300Z 22006KT 9999 FEW013 BKN023 BKN100 23/20 Q1012 A2989 NOSIG
SEGU 010930Z 0112/0212 20005KT 9999 SCT023 SCT100 
     FM020000 21012KT CAVOK 
     FM020600 21007KT 9999 SCT020 BKN090 TX30/0120Z TN21/0210Z
       
SEMT 011300Z 19011KT 9999 SCT010 OVC023 23/21 Q1012
SEMT 010930Z 0112/0212 21010KT 9999 SCT023 SCT090 
     FM011700 30010KT CAVOK 
     FM020600 18008KT 9999 BKN023 TX29/0120Z TN22/0210Z